KTXK/TXK METAR and TAF weather

Enter ICAO airport designator
Station Type Date Time Source
KTXK METAR 2020/01/21 14:53 UTC NOAA

KTXK 211453Z 08008KT 10SM CLR M02/M06 A3060 RMK AO2 SLP365 T10171056 50011


Station Type Date Time Source
KTXK Decoded METAR 2020/01/21 14:53 UTC NOAA

TEXARKANA RGNL WEBB FIELD, AR, United States (KTXK) 33-27N 093-59W 111M
Jan 21, 2020 - 09:53 AM EST / 2020.01.21 1453 UTC
Wind: from the E (080 degrees) at 9 MPH (8 KT):0
Visibility: 10 mile(s):0
Sky conditions: clear
Temperature: 28.9 F (-1.7 C)
Windchill: 21 F (-6 C):1
Dew Point: 21.9 F (-5.6 C)
Relative Humidity: 74%
Pressure (altimeter): 30.6 in. Hg (1036 hPa)
Pressure tendency: 0.03 inches (1.1 hPa) higher than three hours ago
ob: KTXK 211453Z 08008KT 10SM CLR M02/M06 A3060 RMK AO2 SLP365 T10171056 50011
cycle: 15

Station Type Date Time Source
KTXK TAF 2020/01/21 12:22 UTC NOAA

TAF KTXK 211120Z 2112/2212 VRB03KT P6SM SKC
FM211500 10006KT P6SM BKN100

Example: see airport list